Huvudsida
METAR-TAF:

METAR-TAF

Flygplatser :

Heidrun, Norge

latitud: 65-19-30N, longitud: 007-19-36E, höjd: 0 m

Aktuellt väderrapport

Denna rapport gjordes för 29 minuter sedan, klockan 10:20 UTC
Vind 24 kt från sydost
Temperatur 5°C
Fuktighet 65%
Tryck 984 hPa
Sikt 10 km eller mer
Spridda moln på en höjd av 3000 ft, Högtornande cumulus.

METAR: ENHE 171020Z 14024KT 9999 SCT030TCU 05/M01 Q0984 W///S6

Tid: 11:49 (10:49 UTC)

Väderprognos

Denna rapport gjordes för 2 timmar och 49 minuter sedan, klockan 08:00 UTC
Prognos gäller från 17 kl. 09 UTC till 17 kl. 18 UTC
Vind 15 kt från syd/sydväst
Sikt 10 km eller mer
Få moln på en höjd av 2000 ft
Brutna moln på en höjd av 4000 ft
Sannolikhet 30% :
Temporärt
från 17 kl. 09 UTC till 17 kl. 12 UTC
Vind 25 kt från syd/sydost
Spridda moln på en höjd av 2000 ft, Cumulonimbus.

TAF: ENHE 170800Z 1709/1718 20015KT 9999 FEW020 BKN040 PROB30 TEMPO 1709/1712 15025KT SCT020CB

Aktuella väderrapporter och prognoser från 4000 flygplatser (METAR- och TAF-rapporter).

De tillgängliga stationerna syns som gula och röda prickar på kartan.

För musen över prickarna för att se namnen på stationerna.

Klicka sedan för att få väderrapporter och prognoser.

För att ändra kartan: Klicka på de gröna knapparna med ett svart kors på för att zooma in; den gröna knappen med ett streck på för att zooma ut; eller på de gröna pilarna för angränsande kartor.


METAR-TAF: